createdAt,value
2023-04-04T00:00:58.184Z,4.01
2023-04-04T00:03:26.666Z,3.98
2023-04-04T00:05:55.094Z,3.98
2023-04-04T00:08:23.379Z,3.98
2023-04-04T00:10:58.944Z,3.93
2023-04-04T00:13:27.541Z,3.92
2023-04-04T00:15:56.170Z,3.88
2023-04-04T00:18:24.487Z,3.88
2023-04-04T00:20:52.874Z,3.86
2023-04-04T00:23:21.148Z,3.83
2023-04-04T00:25:53.197Z,3.90
2023-04-04T00:28:21.967Z,3.88
2023-04-04T00:30:50.398Z,3.86
2023-04-04T00:33:18.781Z,3.88
2023-04-04T00:35:49.235Z,3.85
2023-04-04T00:38:17.591Z,3.91
2023-04-04T00:40:50.440Z,3.74
2023-04-04T00:43:20.573Z,3.82
2023-04-04T00:45:48.961Z,3.73
2023-04-04T00:48:17.411Z,3.70
2023-04-04T00:50:45.788Z,3.61
2023-04-04T00:53:14.171Z,3.56
2023-04-04T00:55:43.901Z,3.56
2023-04-04T00:58:12.956Z,3.58
2023-04-04T01:00:43.296Z,3.50
2023-04-04T01:03:12.904Z,3.54
2023-04-04T01:05:42.655Z,3.56
2023-04-04T01:08:11.081Z,3.57
2023-04-04T01:10:40.849Z,3.53
2023-04-04T01:13:10.177Z,3.53
2023-04-04T01:15:38.486Z,3.56
2023-04-04T01:18:09.849Z,3.54
2023-04-04T01:20:45.572Z,3.52
2023-04-04T01:23:14.625Z,3.56
2023-04-04T01:25:47.528Z,3.47
2023-04-04T01:28:16.491Z,3.40
2023-04-04T01:30:46.886Z,3.41
2023-04-04T01:33:22.990Z,3.49
2023-04-04T01:36:03.223Z,3.43
2023-04-04T01:38:39.182Z,3.36
2023-04-04T01:41:12.094Z,3.35
2023-04-04T01:43:47.360Z,3.27
2023-04-04T01:46:18.639Z,3.31
2023-04-04T01:48:49.488Z,3.23
2023-04-04T01:51:23.811Z,3.23
2023-04-04T01:53:53.678Z,3.27
2023-04-04T01:56:23.424Z,3.21
2023-04-04T01:58:52.634Z,3.23
2023-04-04T02:01:21.349Z,3.17
2023-04-04T02:03:49.703Z,3.08
2023-04-04T02:06:18.071Z,3.10
2023-04-04T02:08:47.073Z,3.10
2023-04-04T02:11:15.911Z,3.11
2023-04-04T02:13:45.576Z,3.06
2023-04-04T02:16:17.388Z,3.08
2023-04-04T02:18:46.054Z,3.05
2023-04-04T02:21:14.367Z,3.03
2023-04-04T02:23:42.636Z,3.08
2023-04-04T02:26:10.934Z,2.97
2023-04-04T02:28:39.312Z,2.99
2023-04-04T02:31:08.964Z,2.89
2023-04-04T02:33:37.286Z,2.85
2023-04-04T02:36:08.108Z,2.91
2023-04-04T02:38:36.530Z,2.91
2023-04-04T02:41:07.072Z,2.93
2023-04-04T02:43:35.382Z,2.85
2023-04-04T02:46:20.605Z,2.87
2023-04-04T02:48:52.204Z,2.76
2023-04-04T02:51:21.313Z,2.79
2023-04-04T02:53:50.067Z,2.76
2023-04-04T02:56:26.705Z,2.70
2023-04-04T02:58:55.703Z,2.74
2023-04-04T03:01:26.035Z,2.55
2023-04-04T03:03:54.406Z,2.59
2023-04-04T03:06:24.090Z,2.58
2023-04-04T03:08:52.557Z,2.62
2023-04-04T03:11:21.525Z,2.59
2023-04-04T03:13:52.340Z,2.59
2023-04-04T03:16:29.062Z,2.64
2023-04-04T03:18:58.598Z,2.60
2023-04-04T03:21:27.639Z,2.59
2023-04-04T03:23:58.987Z,2.44
2023-04-04T03:26:28.379Z,2.44
2023-04-04T03:28:57.286Z,2.39
2023-04-04T03:31:28.555Z,2.25
2023-04-04T03:33:56.898Z,2.20
2023-04-04T03:36:25.176Z,2.16
2023-04-04T03:38:53.536Z,2.10
2023-04-04T03:41:21.821Z,2.03
2023-04-04T03:43:50.476Z,1.97
2023-04-04T03:46:19.343Z,1.98
2023-04-04T03:48:49.878Z,1.87
2023-04-04T03:51:24.726Z,2.01
2023-04-04T03:53:53.080Z,2.02
2023-04-04T03:56:21.635Z,1.99
2023-04-04T03:58:50.011Z,1.98
2023-04-04T04:01:21.785Z,1.95
2023-04-04T04:03:51.636Z,1.92
2023-04-04T04:06:20.070Z,1.84
2023-04-04T04:08:49.657Z,1.91
2023-04-04T04:11:18.227Z,1.88
2023-04-04T04:13:46.552Z,1.90
2023-04-04T04:16:14.876Z,1.96
2023-04-04T04:18:43.604Z,1.93
2023-04-04T04:21:17.424Z,1.97
2023-04-04T04:23:45.928Z,2.00
2023-04-04T04:26:14.216Z,2.00
2023-04-04T04:28:42.826Z,2.01
2023-04-04T04:31:16.189Z,1.96
2023-04-04T04:33:48.789Z,1.99
2023-04-04T04:36:21.015Z,1.92
2023-04-04T04:38:59.999Z,1.87
2023-04-04T04:41:31.378Z,1.91
2023-04-04T04:44:02.185Z,1.85
2023-04-04T04:46:31.880Z,1.70
2023-04-04T04:49:01.793Z,1.76
2023-04-04T04:51:33.607Z,1.73
2023-04-04T04:54:02.217Z,1.72
2023-04-04T04:56:33.067Z,1.62
2023-04-04T04:59:09.195Z,1.65
2023-04-04T05:01:40.054Z,1.69
2023-04-04T05:04:08.363Z,1.64
2023-04-04T05:06:49.163Z,1.62
2023-04-04T05:09:17.762Z,1.57
2023-04-04T05:11:46.649Z,1.57
2023-04-04T05:14:15.830Z,1.57
2023-04-04T05:16:53.182Z,1.53
2023-04-04T05:19:23.927Z,1.54
2023-04-04T05:21:57.686Z,1.50
2023-04-04T05:24:34.601Z,1.47
2023-04-04T05:27:03.574Z,1.51
2023-04-04T05:29:39.115Z,1.55
2023-04-04T05:32:08.330Z,1.50
2023-04-04T05:34:39.255Z,1.57
2023-04-04T05:37:15.679Z,1.56
2023-04-04T05:39:48.925Z,1.62
2023-04-04T05:42:18.004Z,1.67
2023-04-04T05:44:51.886Z,1.64
2023-04-04T05:47:22.067Z,1.73
2023-04-04T05:49:51.127Z,1.78
2023-04-04T05:52:22.143Z,1.81
2023-04-04T05:54:52.311Z,1.80
2023-04-04T05:57:28.183Z,1.77
2023-04-04T05:59:58.963Z,1.96
2023-04-04T06:02:28.054Z,1.87
2023-04-04T06:05:01.297Z,1.86
2023-04-04T06:07:35.056Z,1.92
2023-04-04T06:10:03.396Z,1.97
2023-04-04T06:12:33.133Z,1.97
2023-04-04T06:15:02.038Z,2.07
2023-04-04T06:17:30.656Z,2.16
2023-04-04T06:19:58.869Z,2.29
2023-04-04T06:22:27.194Z,2.32
2023-04-04T06:24:58.077Z,2.35
2023-04-04T06:27:28.490Z,2.45
2023-04-04T06:29:58.807Z,2.51
2023-04-04T06:32:28.100Z,2.66
2023-04-04T06:34:56.515Z,2.62
2023-04-04T06:37:39.837Z,2.67
2023-04-04T06:40:17.541Z,2.81
2023-04-04T06:42:50.581Z,2.88
2023-04-04T06:45:19.758Z,2.86
2023-04-04T06:47:50.105Z,2.99
2023-04-04T06:50:18.937Z,2.91
2023-04-04T06:52:49.416Z,3.02
2023-04-04T06:55:19.421Z,2.97
2023-04-04T06:57:47.704Z,2.96
2023-04-04T07:00:17.073Z,3.23
2023-04-04T07:02:45.616Z,3.43
2023-04-04T07:05:14.414Z,3.56
2023-04-04T07:07:42.661Z,3.54
2023-04-04T07:10:11.156Z,3.80
2023-04-04T07:12:41.221Z,4.01
2023-04-04T07:15:10.889Z,3.88
2023-04-04T07:17:41.096Z,3.94
2023-04-04T07:20:17.749Z,4.09
2023-04-04T07:22:46.313Z,4.26
2023-04-04T07:25:14.543Z,4.17
2023-04-04T07:27:44.174Z,4.34
2023-04-04T07:30:13.619Z,4.52
2023-04-04T07:32:42.160Z,4.49
2023-04-04T07:35:11.022Z,4.61
2023-04-04T07:37:39.501Z,4.54
2023-04-04T07:40:09.526Z,4.86
2023-04-04T07:42:38.195Z,4.94
2023-04-04T07:45:09.127Z,5.17
2023-04-04T07:47:37.382Z,5.19
2023-04-04T07:50:06.270Z,5.11
2023-04-04T07:52:35.129Z,5.21
2023-04-04T07:55:03.704Z,5.31
2023-04-04T07:57:31.963Z,5.33
2023-04-04T08:00:00.635Z,5.40
2023-04-04T08:02:30.603Z,5.57
2023-04-04T08:04:58.949Z,5.50
2023-04-04T08:07:29.340Z,5.39
2023-04-04T08:09:58.558Z,5.62
2023-04-04T08:12:27.155Z,5.50
2023-04-04T08:14:56.029Z,5.67
2023-04-04T08:17:24.769Z,5.62
2023-04-04T08:19:54.474Z,5.78
2023-04-04T08:22:22.732Z,5.97
2023-04-04T08:24:50.962Z,5.86
2023-04-04T08:27:19.467Z,6.08
2023-04-04T08:29:48.183Z,6.31
2023-04-04T08:32:16.510Z,6.19
2023-04-04T08:34:44.734Z,6.05
2023-04-04T08:37:14.952Z,6.30
2023-04-04T08:39:44.082Z,6.46
2023-04-04T08:42:12.497Z,6.38
2023-04-04T08:44:45.498Z,6.39
2023-04-04T08:47:14.926Z,6.39
2023-04-04T08:49:46.282Z,6.48
2023-04-04T08:52:19.246Z,6.82
2023-04-04T08:54:48.997Z,6.66
2023-04-04T08:57:17.579Z,6.71
2023-04-04T08:59:46.054Z,6.78
2023-04-04T09:02:24.772Z,6.96
2023-04-04T09:05:05.629Z,7.27
2023-04-04T09:07:38.792Z,7.42
2023-04-04T09:10:10.112Z,6.82
2023-04-04T09:12:42.712Z,6.93
2023-04-04T09:15:12.236Z,7.15
2023-04-04T09:17:40.745Z,7.30
2023-04-04T09:20:37.223Z,7.61
2023-04-04T09:23:09.050Z,7.38
2023-04-04T09:25:38.168Z,7.59
2023-04-04T09:28:06.689Z,7.69
2023-04-04T09:30:35.876Z,7.42
2023-04-04T09:33:06.203Z,7.77
2023-04-04T09:35:36.516Z,7.85
2023-04-04T09:38:05.075Z,7.88
2023-04-04T09:40:35.977Z,8.12
2023-04-04T09:43:05.469Z,8.09
2023-04-04T09:45:35.936Z,7.82
2023-04-04T09:48:04.259Z,8.04
2023-04-04T09:50:33.683Z,8.41
2023-04-04T09:53:01.963Z,8.39
2023-04-04T09:55:36.645Z,8.42
2023-04-04T09:58:14.168Z,8.46
2023-04-04T10:00:47.896Z,8.47
2023-04-04T10:03:17.215Z,8.31
2023-04-04T10:05:46.981Z,8.72
2023-04-04T10:08:17.120Z,8.50
2023-04-04T10:11:09.102Z,8.70
2023-04-04T10:13:41.912Z,8.87
2023-04-04T10:16:12.115Z,8.76
2023-04-04T10:18:41.592Z,8.68
2023-04-04T10:23:43.995Z,9.06
2023-04-04T10:26:14.441Z,8.86
2023-04-04T10:28:44.048Z,9.37
2023-04-04T10:31:21.467Z,8.87
2023-04-04T10:33:57.264Z,9.41
2023-04-04T10:36:29.204Z,9.49
2023-04-04T10:39:06.390Z,9.39
2023-04-04T10:41:37.515Z,9.34
2023-04-04T10:44:16.037Z,9.27
2023-04-04T10:46:48.388Z,9.50
2023-04-04T10:49:17.529Z,9.77
2023-04-04T10:51:55.714Z,9.68
2023-04-04T10:54:26.834Z,9.81
2023-04-04T10:57:00.771Z,9.59
2023-04-04T10:59:29.548Z,9.18
2023-04-04T11:01:59.226Z,9.96
2023-04-04T11:04:33.866Z,9.69
2023-04-04T11:07:17.092Z,9.81
2023-04-04T11:09:56.445Z,10.27
2023-04-04T11:12:31.494Z,9.80
2023-04-04T11:15:09.888Z,10.42
2023-04-04T11:18:08.088Z,10.43
2023-04-04T11:20:46.506Z,10.62
2023-04-04T11:23:20.961Z,10.60
2023-04-04T11:25:53.372Z,10.55
2023-04-04T11:28:45.022Z,10.48
2023-04-04T11:31:27.882Z,10.15
2023-04-04T11:33:58.700Z,10.78
2023-04-04T11:36:51.883Z,10.88
2023-04-04T11:39:28.668Z,10.42
2023-04-04T11:41:59.747Z,10.52
2023-04-04T11:44:32.131Z,10.70
2023-04-04T11:47:10.474Z,10.69
2023-04-04T11:49:40.968Z,10.84
2023-04-04T11:52:10.854Z,10.70
2023-04-04T11:54:39.959Z,10.96
2023-04-04T11:57:08.434Z,10.87
2023-04-04T11:59:41.299Z,11.22
2023-04-04T12:02:11.066Z,10.83
2023-04-04T12:04:44.577Z,10.79
2023-04-04T12:07:14.037Z,10.84
2023-04-04T12:09:43.464Z,11.31
2023-04-04T12:12:14.445Z,11.08
2023-04-04T12:14:44.563Z,11.32
2023-04-04T12:17:12.866Z,11.46
2023-04-04T12:19:42.516Z,11.74
2023-04-04T12:22:10.923Z,11.63
2023-04-04T12:24:39.409Z,11.53
2023-04-04T12:27:07.929Z,11.30
2023-04-04T12:29:37.678Z,11.66
2023-04-04T12:32:10.647Z,11.62
2023-04-04T12:34:48.508Z,11.91
2023-04-04T12:37:19.662Z,11.73
2023-04-04T12:39:50.028Z,12.06
2023-04-04T12:42:23.676Z,11.70
2023-04-04T12:44:52.849Z,10.63
2023-04-04T12:47:24.311Z,11.31
2023-04-04T12:49:55.381Z,11.64
2023-04-04T12:52:28.222Z,11.61
2023-04-04T12:55:08.048Z,12.30
2023-04-04T12:57:37.587Z,12.26
2023-04-04T13:00:09.089Z,12.60
2023-04-04T13:02:40.874Z,12.48
2023-04-04T13:05:11.277Z,12.31
2023-04-04T13:07:43.599Z,12.25
2023-04-04T13:10:15.979Z,12.31
2023-04-04T13:12:56.867Z,11.99
2023-04-04T13:15:25.584Z,11.99
2023-04-04T13:17:55.221Z,12.55
2023-04-04T13:20:25.790Z,12.20
2023-04-04T13:22:59.630Z,12.08
2023-04-04T13:25:27.958Z,12.38
2023-04-04T13:27:56.524Z,11.99
2023-04-04T13:30:26.170Z,12.65
2023-04-04T13:32:55.888Z,12.38
2023-04-04T13:35:24.411Z,12.31
2023-04-04T13:37:52.717Z,12.42
2023-04-04T13:40:21.302Z,12.55
2023-04-04T13:42:50.646Z,12.75
2023-04-04T13:45:19.522Z,13.05
2023-04-04T13:47:47.929Z,12.51
2023-04-04T13:50:18.346Z,12.31
2023-04-04T13:52:46.658Z,13.10
2023-04-04T13:55:15.263Z,12.43
2023-04-04T13:57:43.559Z,12.57
2023-04-04T14:00:13.111Z,12.52
2023-04-04T14:02:41.649Z,12.91
2023-04-04T14:05:10.430Z,13.11
2023-04-04T14:07:40.156Z,12.81
2023-04-04T14:10:11.281Z,12.82
2023-04-04T14:12:39.876Z,13.06
2023-04-04T14:15:09.276Z,13.51
2023-04-04T14:17:37.889Z,13.44
2023-04-04T14:20:07.034Z,13.36
2023-04-04T14:22:35.498Z,12.63
2023-04-04T14:25:05.817Z,12.36
2023-04-04T14:27:34.062Z,13.06
2023-04-04T14:30:02.286Z,12.65
2023-04-04T14:32:31.001Z,13.14
2023-04-04T14:35:00.095Z,13.30
2023-04-04T14:37:28.368Z,13.50
2023-04-04T14:39:56.566Z,13.37
2023-04-04T14:42:26.238Z,12.89
2023-04-04T14:44:54.525Z,13.74
2023-04-04T14:47:22.727Z,12.66
2023-04-04T14:49:50.950Z,12.81
2023-04-04T14:52:19.178Z,13.21
2023-04-04T14:54:47.426Z,14.38
2023-04-04T14:57:16.141Z,13.65
2023-04-04T14:59:45.786Z,14.00
2023-04-04T15:02:14.029Z,14.08
2023-04-04T15:04:42.701Z,13.97
2023-04-04T15:07:11.043Z,14.23
2023-04-04T15:09:39.416Z,14.44
2023-04-04T15:12:07.784Z,15.02
2023-04-04T15:14:36.558Z,14.52
2023-04-04T15:17:06.606Z,14.55
2023-04-04T15:19:34.836Z,14.77
2023-04-04T15:22:03.177Z,14.58
2023-04-04T15:24:31.490Z,14.44
2023-04-04T15:26:59.694Z,14.47
2023-04-04T15:29:28.377Z,14.97
2023-04-04T15:31:56.666Z,14.84
2023-04-04T15:34:26.388Z,15.48
2023-04-04T15:36:57.743Z,14.68
2023-04-04T15:39:26.160Z,15.40
2023-04-04T15:41:54.393Z,15.73
2023-04-04T15:44:22.630Z,13.98
2023-04-04T15:46:53.318Z,13.95
2023-04-04T15:49:21.629Z,13.90
2023-04-04T15:51:51.292Z,14.11
2023-04-04T15:54:19.554Z,13.53
2023-04-04T15:56:47.858Z,12.76
2023-04-04T15:59:16.197Z,12.61
2023-04-04T16:01:44.578Z,13.10
2023-04-04T16:04:12.881Z,12.90
2023-04-04T16:06:41.405Z,12.75
2023-04-04T16:09:11.459Z,12.50
2023-04-04T16:11:39.740Z,11.81
2023-04-04T16:14:09.386Z,11.71
2023-04-04T16:16:39.700Z,11.58
2023-04-04T16:19:08.041Z,11.75
2023-04-04T16:21:36.416Z,11.63
2023-04-04T16:24:05.304Z,11.46
2023-04-04T16:26:35.116Z,11.38
2023-04-04T16:29:04.208Z,11.12
2023-04-04T16:31:32.745Z,11.18
2023-04-04T16:34:01.069Z,11.13
2023-04-04T16:36:29.423Z,11.56
2023-04-04T16:38:59.368Z,12.04
2023-04-04T16:41:27.913Z,11.53
2023-04-04T16:43:59.640Z,13.63
2023-04-04T16:46:28.407Z,12.74
2023-04-04T16:48:56.674Z,12.45
2023-04-04T16:51:24.903Z,13.15
2023-04-04T16:53:53.173Z,12.90
2023-04-04T16:56:21.382Z,12.31
2023-04-04T16:58:49.764Z,12.79
2023-04-04T17:01:22.859Z,11.70
2023-04-04T17:03:51.380Z,11.13
2023-04-04T17:06:19.674Z,10.85
2023-04-04T17:08:49.387Z,10.45
2023-04-04T17:11:17.841Z,10.21
2023-04-04T17:13:46.082Z,10.23
2023-04-04T17:16:14.388Z,10.04
2023-04-04T17:18:44.282Z,10.09
2023-04-04T17:21:12.763Z,9.97
2023-04-04T17:23:41.004Z,9.99
2023-04-04T17:26:09.244Z,9.94
2023-04-04T17:28:37.713Z,10.00
2023-04-04T17:31:07.121Z,9.80
2023-04-04T17:33:35.554Z,9.85
2023-04-04T17:36:05.865Z,9.89
2023-04-04T17:38:34.205Z,9.89
2023-04-04T17:41:04.278Z,9.76
2023-04-04T17:43:32.977Z,9.76
2023-04-04T17:46:02.834Z,9.66
2023-04-04T17:48:32.604Z,9.55
2023-04-04T17:51:01.327Z,9.46
2023-04-04T17:53:31.001Z,9.47
2023-04-04T17:55:59.942Z,9.40
2023-04-04T17:58:28.216Z,9.27
2023-04-04T18:00:57.651Z,9.23
2023-04-04T18:03:26.477Z,9.23
2023-04-04T18:05:55.316Z,9.05
2023-04-04T18:08:23.605Z,8.90
2023-04-04T18:10:53.308Z,8.82
2023-04-04T18:13:21.897Z,8.78
2023-04-04T18:15:50.799Z,8.88
2023-04-04T18:18:21.271Z,8.70
2023-04-04T18:20:49.675Z,8.57
2023-04-04T18:23:18.250Z,8.45
2023-04-04T18:25:46.504Z,8.46
2023-04-04T18:28:16.115Z,8.32
2023-04-04T18:30:44.622Z,8.35
2023-04-04T18:33:13.422Z,8.28
2023-04-04T18:35:41.966Z,8.24
2023-04-04T18:38:10.269Z,8.29
2023-04-04T18:40:39.136Z,8.23
2023-04-04T18:43:07.648Z,8.21
2023-04-04T18:45:40.250Z,8.21
2023-04-04T18:48:09.365Z,8.24
2023-04-04T18:50:37.869Z,8.27
2023-04-04T18:53:06.313Z,8.11
2023-04-04T18:55:34.599Z,8.02
2023-04-04T18:58:02.825Z,7.93
2023-04-04T19:00:31.274Z,7.81
2023-04-04T19:03:00.986Z,7.69
2023-04-04T19:05:34.142Z,7.60
2023-04-04T19:08:03.503Z,7.52
2023-04-04T19:10:32.304Z,7.50
2023-04-04T19:13:00.522Z,7.43
2023-04-04T19:15:28.898Z,7.44
2023-04-04T19:17:57.257Z,7.41
2023-04-04T19:20:27.332Z,7.29
2023-04-04T19:22:55.920Z,7.22
2023-04-04T19:25:24.138Z,7.18
2023-04-04T19:27:52.449Z,7.15
2023-04-04T19:30:47.186Z,7.07
2023-04-04T19:33:17.432Z,7.09
2023-04-04T19:35:54.485Z,6.95
2023-04-04T19:38:25.933Z,6.88
2023-04-04T19:40:57.621Z,6.73
2023-04-04T19:43:26.755Z,6.70
2023-04-04T19:45:56.299Z,6.69
2023-04-04T19:48:46.057Z,6.67
2023-04-04T19:51:40.935Z,6.49
2023-04-04T19:54:14.866Z,6.41
2023-04-04T19:56:46.670Z,6.41
2023-04-04T19:59:55.392Z,6.40
2023-04-04T20:02:57.865Z,6.36
2023-04-04T20:05:59.981Z,6.25
2023-04-04T20:08:39.668Z,6.14
2023-04-04T20:11:08.858Z,6.09
2023-04-04T20:13:38.121Z,5.98
2023-04-04T20:16:09.190Z,5.95
2023-04-04T20:18:38.452Z,5.91
2023-04-04T20:21:11.374Z,5.89
2023-04-04T20:23:46.821Z,5.79
2023-04-04T20:26:35.631Z,5.77
2023-04-04T20:29:05.413Z,5.80
2023-04-04T20:31:36.317Z,5.80
2023-04-04T20:34:07.338Z,5.87
2023-04-04T20:36:43.013Z,5.91
2023-04-04T20:39:37.722Z,6.01
2023-04-04T20:42:17.848Z,6.04
2023-04-04T20:44:46.503Z,6.02
2023-04-04T20:47:34.533Z,5.98
2023-04-04T20:50:02.893Z,5.97
2023-04-04T20:52:31.210Z,5.97
2023-04-04T20:55:00.944Z,6.01
2023-04-04T20:57:29.216Z,5.92
2023-04-04T20:59:57.467Z,5.95
2023-04-04T21:02:25.852Z,5.92
2023-04-04T21:04:54.190Z,5.87
2023-04-04T21:07:36.628Z,5.96
2023-04-04T21:10:21.560Z,5.94
2023-04-04T21:12:49.792Z,5.87
2023-04-04T21:15:23.539Z,5.87
2023-04-04T21:17:52.532Z,5.85
2023-04-04T21:20:54.742Z,5.67
2023-04-04T21:23:32.405Z,5.50
2023-04-04T21:26:03.821Z,5.39
2023-04-04T21:28:33.997Z,5.21
2023-04-04T21:31:04.292Z,5.13
2023-04-04T21:33:32.679Z,5.09
2023-04-04T21:36:01.276Z,5.01
2023-04-04T21:38:31.309Z,4.91
2023-04-04T21:41:01.837Z,4.78
2023-04-04T21:43:30.063Z,4.69
2023-04-04T21:45:58.381Z,4.81
2023-04-04T21:48:27.423Z,4.76
2023-04-04T21:50:55.669Z,4.62
2023-04-04T21:53:23.887Z,4.54
2023-04-04T21:55:52.135Z,4.46
2023-04-04T21:58:21.749Z,4.36
2023-04-04T22:00:50.039Z,4.30
2023-04-04T22:03:18.279Z,4.20
2023-04-04T22:05:46.634Z,4.20
2023-04-04T22:08:15.006Z,4.06
2023-04-04T22:10:47.585Z,4.10
2023-04-04T22:13:17.329Z,4.06
2023-04-04T22:15:48.034Z,3.99
2023-04-04T22:18:16.570Z,3.90
2023-04-04T22:20:46.140Z,3.86
2023-04-04T22:23:17.724Z,3.82
2023-04-04T22:25:45.982Z,3.73
2023-04-04T22:28:17.817Z,3.67
2023-04-04T22:30:47.501Z,3.67
2023-04-04T22:33:15.726Z,3.70
2023-04-04T22:35:45.755Z,3.75
2023-04-04T22:38:16.278Z,3.77
2023-04-04T22:40:44.976Z,3.93
2023-04-04T22:43:13.342Z,4.02
2023-04-04T22:45:41.865Z,3.93
2023-04-04T22:48:11.624Z,4.07
2023-04-04T22:50:40.139Z,3.88
2023-04-04T22:53:13.201Z,3.90
2023-04-04T22:55:41.969Z,3.76
2023-04-04T22:58:10.309Z,3.79
2023-04-04T23:00:38.886Z,3.57
2023-04-04T23:03:07.418Z,3.53
2023-04-04T23:05:37.124Z,3.63
2023-04-04T23:08:05.467Z,3.75
2023-04-04T23:10:33.849Z,3.74
2023-04-04T23:13:02.196Z,3.72
2023-04-04T23:15:32.334Z,3.62
2023-04-04T23:18:00.768Z,3.43
2023-04-04T23:20:31.074Z,3.35
2023-04-04T23:23:01.179Z,3.32
2023-04-04T23:25:29.568Z,3.40
2023-04-04T23:27:57.861Z,3.40
2023-04-04T23:30:26.123Z,3.55
2023-04-04T23:32:54.423Z,3.52
2023-04-04T23:35:22.831Z,3.45
2023-04-04T23:37:51.217Z,3.34
2023-04-04T23:40:21.064Z,3.34
2023-04-04T23:42:49.336Z,3.26
2023-04-04T23:45:17.678Z,3.33
2023-04-04T23:47:46.061Z,3.23
2023-04-04T23:50:14.335Z,3.24
2023-04-04T23:52:42.645Z,3.48
2023-04-04T23:55:11.144Z,3.18
2023-04-04T23:57:41.199Z,3.24
